Terminal Aerodrome Forecast
Issued by NWS Duluth, MN

Home | Current Version | Previous Version | Text Only | Print | Product List | Glossary On
Versions: 1 2 3 4 5 6 7 8 9 10 11 12 13 14 15 16 17 18 19 20 21 22 23
573
FTUS43 KDLH 212005 AAB
TAFDLH
TAF AMD
KDLH 212005Z 2120/2218 16006KT P6SM SCT050
     FM220100 12006KT P6SM BKN090
     FM220300 VRB03KT P6SM -SHRA VCTS BKN060CB
     FM220600 VRB03KT 5SM BR BKN030
     FM221000 VRB03KT P6SM BKN090=

USA.gov is the U.S. government's official web portal to all federal, state and local government web resources and services.